Time;durP1;ratioP1;P1;durP2;ratioP2;P2;SDS_P1;SDS_P2;PMS_P1;PMS_P2;Temp;Humidity;BMP_temperature;BMP_pressure;BME280_temperature;BME280_humidity;BME280_pressure;Samples;Min_cycle;Max_cycle;Signal;HPM_P1;HPM_P2
2023/04/30 00:01:25;;;;;;;;;;;;;;;19.70;46.61;101538.28;5007832;28;4336;-83
2023/04/30 00:03:51;;;;;;;;;;;;;;;19.70;46.54;101534.66;5008202;28;4014;-83
2023/04/30 00:06:18;;;;;;;;;;;;;;;19.71;46.52;101533.28;5012472;28;4109;-82
2023/04/30 00:08:44;;;;;;;;;;;;;;;19.69;46.60;101536.03;5008835;28;3924;-83
2023/04/30 00:11:10;;;;;;;;;;;;;;;19.69;46.61;101541.78;5005393;28;3909;-82
2023/04/30 00:13:37;;;;;;;;;;;;;;;19.67;46.60;101543.13;5006304;28;4069;-83
2023/04/30 00:16:03;;;;;;;;;;;;;;;19.67;46.62;101543.13;5008807;28;4219;-82
2023/04/30 00:18:30;;;;;;;;;;;;;;;19.66;46.59;101541.63;5009932;28;4840;-82
2023/04/30 00:20:56;;;;;;;;;;;;;;;19.67;46.60;101546.00;5007238;28;4068;-82
2023/04/30 00:23:22;;;;;;;;;;;;;;;19.67;46.61;101545.25;5009343;28;4032;-82
2023/04/30 00:25:49;;;;;;;;;;;;;;;19.67;46.41;101548.13;5008818;28;4198;-83
2023/04/30 00:28:15;;;;;;;;;;;;;;;19.66;46.55;101549.50;5009181;28;4070;-82
2023/04/30 00:30:42;;;;;;;;;;;;;;;19.65;46.55;101545.91;5009289;28;4135;-82
2023/04/30 00:33:08;;;;;;;;;;;;;;;19.65;46.44;101551.66;5001991;28;3952;-83
2023/04/30 00:35:34;;;;;;;;;;;;;;;19.65;46.55;101554.50;5012072;28;4026;-83
2023/04/30 00:38:01;;;;;;;;;;;;;;;19.65;46.60;101559.50;5015684;28;4015;-82
2023/04/30 00:40:28;;;;;;;;;;;;;;;19.64;46.64;101561.63;5009332;28;4129;-83
2023/04/30 00:42:54;;;;;;;;;;;;;;;19.64;46.54;101564.50;5002792;28;3959;-82
2023/04/30 00:45:22;;;;;;;;;;;;;;;19.63;46.59;101565.88;5012257;28;4330;-83
2023/04/30 00:47:48;;;;;;;;;;;;;;;19.63;46.50;101568.75;5001826;28;4051;-83
2023/04/30 00:50:15;;;;;;;;;;;;;;;19.63;46.60;101568.75;5014886;28;4024;-81
2023/04/30 00:52:42;;;;;;;;;;;;;;;19.63;46.59;101574.50;5016846;28;4404;-82
2023/04/30 00:55:09;;;;;;;;;;;;;;;19.63;46.52;101586.00;5014829;28;4063;-82
2023/04/30 00:57:35;;;;;;;;;;;;;;;19.62;46.58;101590.22;5009686;28;4040;-82
2023/04/30 01:00:01;;;;;;;;;;;;;;;19.63;46.50;101590.97;5009085;28;3961;-82
2023/04/30 01:02:28;;;;;;;;;;;;;;;19.61;46.52;101594.50;5015330;28;4041;-83
2023/04/30 01:04:55;;;;;;;;;;;;;;;19.61;46.54;101588.75;5006903;28;4031;-82
2023/04/30 01:07:21;;;;;;;;;;;;;;;19.61;46.46;101594.50;4998625;28;4091;-83
2023/04/30 01:09:47;;;;;;;;;;;;;;;19.60;46.46;101601.59;4993780;28;4092;-82
2023/04/30 01:12:19;;;;;;;;;;;;;;;19.59;46.46;101605.84;5003368;28;4090;-80
2023/04/30 01:14:52;;;;;;;;;;;;;;;19.59;46.53;101596.50;5009405;28;4204;-82
2023/04/30 01:17:31;;;;;;;;;;;;;;;19.59;46.45;101611.59;5009667;28;4090;-82
2023/04/30 01:19:57;;;;;;;;;;;;;;;19.59;46.54;101607.97;5019444;28;4099;-83
2023/04/30 01:22:26;;;;;;;;;;;;;;;19.58;46.52;101615.09;5010234;28;4064;-82
2023/04/30 01:25:01;;;;;;;;;;;;;;;19.58;46.42;101615.09;5009931;28;4060;-82
2023/04/30 01:27:30;;;;;;;;;;;;;;;19.57;46.46;101616.47;5008252;28;4084;-82
2023/04/30 01:29:57;;;;;;;;;;;;;;;19.57;46.48;101616.47;5014936;28;3917;-82
2023/04/30 01:32:24;;;;;;;;;;;;;;;19.58;46.44;101612.22;5007759;28;4414;-82
2023/04/30 01:34:50;;;;;;;;;;;;;;;19.57;46.44;101616.47;5009186;28;4166;-82
2023/04/30 01:37:21;;;;;;;;;;;;;;;19.56;46.47;101626.44;5010098;28;4232;-82
2023/04/30 01:39:56;;;;;;;;;;;;;;;19.55;46.52;101619.97;5012724;28;4062;-82
2023/04/30 01:42:35;;;;;;;;;;;;;;;19.56;46.44;101623.59;5026096;28;4216;-82
2023/04/30 01:45:17;;;;;;;;;;;;;;;19.55;46.35;101617.09;5012504;28;4782;-82
2023/04/30 01:47:47;;;;;;;;;;;;;;;19.54;46.46;101624.22;4997507;28;4047;-82
2023/04/30 01:50:33;;;;;;;;;;;;;;;19.54;46.43;101623.44;5006753;28;4054;-82
2023/04/30 01:53:00;;;;;;;;;;;;;;;19.55;46.43;101636.47;4996425;28;4156;-82
2023/04/30 01:55:27;;;;;;;;;;;;;;;19.55;46.37;101630.72;5000720;28;3971;-82
2023/04/30 01:57:58;;;;;;;;;;;;;;;19.56;46.40;101635.06;5010746;28;3879;-83
2023/04/30 02:00:25;;;;;;;;;;;;;;;19.55;46.52;101648.69;5017653;28;3944;-83
2023/04/30 02:02:54;;;;;;;;;;;;;;;19.56;46.32;101641.59;5018379;28;4316;-83
2023/04/30 02:05:20;;;;;;;;;;;;;;;19.57;46.23;101645.94;5016009;28;4517;-82
2023/04/30 02:07:47;;;;;;;;;;;;;;;19.57;46.36;101654.56;5010497;28;4085;-82
2023/04/30 02:10:15;;;;;;;;;;;;;;;19.59;46.33;101659.69;5006852;28;4072;-83
2023/04/30 02:12:41;;;;;;;;;;;;;;;19.58;46.22;101661.78;5010837;28;4222;-83
2023/04/30 02:15:08;;;;;;;;;;;;;;;19.58;46.24;101658.94;5001205;28;4380;-83
2023/04/30 02:17:34;;;;;;;;;;;;;;;19.59;46.32;101659.69;5024985;28;5258;-82
2023/04/30 02:20:00;;;;;;;;;;;;;;;19.59;46.32;101666.19;5009529;28;3892;-81
2023/04/30 02:22:27;;;;;;;;;;;;;;;19.59;46.37;101663.31;5007522;28;4778;-82
2023/04/30 02:24:54;;;;;;;;;;;;;;;19.58;46.29;101669.69;5010545;28;4058;-83
2023/04/30 02:27:21;;;;;;;;;;;;;;;19.58;46.42;101669.69;5010448;28;4061;-82
2023/04/30 02:29:48;;;;;;;;;;;;;;;19.58;46.35;101675.41;5011724;28;4197;-83
2023/04/30 02:32:14;;;;;;;;;;;;;;;19.57;46.08;101673.94;5008868;28;4087;-83
2023/04/30 02:34:41;;;;;;;;;;;;;;;19.57;46.38;101671.81;5009740;28;3912;-82
2023/04/30 02:37:07;;;;;;;;;;;;;;;19.57;46.50;101673.94;5011262;28;4569;-82
2023/04/30 02:39:34;;;;;;;;;;;;;;;19.56;46.45;101678.94;5011584;28;4597;-80
2023/04/30 02:42:00;;;;;;;;;;;;;;;19.57;46.39;101668.94;5018060;28;4355;-81
2023/04/30 02:44:27;;;;;;;;;;;;;;;19.59;46.41;101671.94;5011746;28;3893;-81
2023/04/30 02:46:53;;;;;;;;;;;;;;;19.61;46.36;101674.94;5009363;28;4029;-80
2023/04/30 02:49:20;;;;;;;;;;;;;;;19.64;46.36;101673.69;5007797;28;4141;-81
2023/04/30 02:51:46;;;;;;;;;;;;;;;19.65;46.46;101669.44;5011150;28;5215;-81
2023/04/30 02:54:12;;;;;;;;;;;;;;;19.67;46.62;101675.28;5005691;28;3975;-81
2023/04/30 02:56:39;;;;;;;;;;;;;;;19.67;46.75;101678.16;5008217;28;3965;-81
2023/04/30 02:59:05;;;;;;;;;;;;;;;19.68;46.55;101678.94;5004996;28;4326;-79
2023/04/30 03:01:32;;;;;;;;;;;;;;;19.67;46.68;101681.03;5006695;28;4475;-81
2023/04/30 03:03:58;;;;;;;;;;;;;;;19.67;46.61;101689.66;5010037;28;4075;-80
2023/04/30 03:06:25;;;;;;;;;;;;;;;19.68;46.63;101687.56;5008385;28;4177;-81
2023/04/30 03:08:51;;;;;;;;;;;;;;;19.69;46.64;101694.09;5015716;28;4202;-81
2023/04/30 03:11:18;;;;;;;;;;;;;;;19.70;46.66;101692.69;5005931;28;4384;-81
2023/04/30 03:13:44;;;;;;;;;;;;;;;19.73;46.72;101697.22;5010405;28;3922;-81
2023/04/30 03:16:11;;;;;;;;;;;;;;;19.74;46.65;101704.44;5007084;28;3960;-81
2023/04/30 03:18:37;;;;;;;;;;;;;;;19.74;46.79;101705.19;5011317;28;4090;-81
2023/04/30 03:21:03;;;;;;;;;;;;;;;19.75;46.88;101705.97;5006933;28;4002;-81
2023/04/30 03:23:30;;;;;;;;;;;;;;;19.75;46.89;101714.59;5008066;28;4008;-81
2023/04/30 03:25:56;;;;;;;;;;;;;;;19.76;46.87;101716.06;5011535;28;4091;-81
2023/04/30 03:28:23;;;;;;;;;;;;;;;19.74;46.84;101710.19;5011163;28;5145;-80
2023/04/30 03:30:49;;;;;;;;;;;;;;;19.75;46.86;101711.72;5009693;28;4088;-81
2023/04/30 03:33:15;;;;;;;;;;;;;;;19.74;46.76;101708.06;5010345;28;4082;-81
2023/04/30 03:35:42;;;;;;;;;;;;;;;19.76;46.64;101707.44;5006464;28;4007;-81
2023/04/30 03:38:08;;;;;;;;;;;;;;;19.76;46.91;101713.94;5007384;28;4190;-81
2023/04/30 03:40:35;;;;;;;;;;;;;;;19.78;46.84;101721.94;5010605;28;4383;-81
2023/04/30 03:43:01;;;;;;;;;;;;;;;19.78;46.87;101716.22;5013698;28;4008;-81
2023/04/30 03:45:28;;;;;;;;;;;;;;;19.79;46.89;101712.72;5023109;28;4155;-81
2023/04/30 03:47:54;;;;;;;;;;;;;;;19.80;46.94;101722.09;5006130;28;4074;-81
2023/04/30 03:50:21;;;;;;;;;;;;;;;19.82;46.98;101722.22;5000419;28;4191;-82
2023/04/30 03:52:47;;;;;;;;;;;;;;;19.81;46.96;101738.72;5006775;28;4054;-81
2023/04/30 03:55:15;;;;;;;;;;;;;;;19.80;47.02;101730.69;5006789;28;4134;-80
2023/04/30 03:57:41;;;;;;;;;;;;;;;19.80;47.04;101742.19;5015056;28;4062;-81
2023/04/30 04:00:08;;;;;;;;;;;;;;;19.80;46.90;101730.69;5007853;28;3912;-82
2023/04/30 04:02:45;;;;;;;;;;;;;;;19.81;47.05;101743.69;5018283;28;4255;-82
2023/04/30 04:05:12;;;;;;;;;;;;;;;19.81;47.02;101746.56;5015142;28;4078;-81
2023/04/30 04:07:40;;;;;;;;;;;;;;;19.81;47.02;101737.94;5010140;28;4014;-81
2023/04/30 04:10:06;;;;;;;;;;;;;;;19.83;47.12;101738.06;5008798;28;4269;-82
2023/04/30 04:12:33;;;;;;;;;;;;;;;19.84;47.09;101753.97;5015035;28;4210;-81
2023/04/30 04:14:59;;;;;;;;;;;;;;;19.84;46.77;101753.97;5007973;28;4094;-81
2023/04/30 04:17:25;;;;;;;;;;;;;;;19.85;47.05;101761.19;5007071;28;3942;-82
2023/04/30 04:19:52;;;;;;;;;;;;;;;19.84;47.11;101754.69;5006383;28;4070;-81
2023/04/30 04:22:19;;;;;;;;;;;;;;;19.85;47.04;101761.94;5014379;28;4037;-66
2023/04/30 04:24:46;;;;;;;;;;;;;;;19.84;47.13;101754.69;5007143;28;4036;-76
2023/04/30 04:27:19;;;;;;;;;;;;;;;19.84;47.06;101762.56;5002694;28;4390;-76
2023/04/30 04:29:46;;;;;;;;;;;;;;;19.84;46.97;101771.94;5007051;28;4890;-76
2023/04/30 04:32:13;;;;;;;;;;;;;;;19.84;46.98;101774.81;5005022;28;4084;-76
2023/04/30 04:34:42;;;;;;;;;;;;;;;19.86;46.87;101777.09;5009567;28;4337;-76
2023/04/30 04:37:08;;;;;;;;;;;;;;;19.86;47.02;101780.69;5005597;28;4099;-76
2023/04/30 04:39:36;;;;;;;;;;;;;;;19.86;47.06;101772.06;5011631;28;4098;-76
2023/04/30 04:42:02;;;;;;;;;;;;;;;19.87;47.00;101778.56;5006139;28;4283;-76
2023/04/30 04:44:29;;;;;;;;;;;;;;;19.88;47.04;101783.72;5008912;28;4017;-76
2023/04/30 04:46:55;;;;;;;;;;;;;;;19.88;46.97;101782.94;5005720;28;4398;-77
2023/04/30 04:49:22;;;;;;;;;;;;;;;19.88;47.04;101788.69;5013326;28;3946;-76
2023/04/30 04:51:50;;;;;;;;;;;;;;;19.88;46.93;101789.47;5015156;28;3950;-76
2023/04/30 04:54:16;;;;;;;;;;;;;;;19.88;47.23;101797.31;5015628;28;3928;-76
2023/04/30 04:56:43;;;;;;;;;;;;;;;19.88;46.95;101800.19;5008485;28;4401;-76
2023/04/30 04:59:09;;;;;;;;;;;;;;;19.87;47.00;101798.69;5009695;28;4094;-69
2023/04/30 05:01:35;;;;;;;;;;;;;;;19.89;47.09;101813.19;5015053;28;4224;-75
2023/04/30 05:04:02;;;;;;;;;;;;;;;19.89;46.83;101813.19;5008617;28;3991;-76
2023/04/30 05:06:28;;;;;;;;;;;;;;;19.90;46.99;101805.31;5008303;28;5015;-76
2023/04/30 05:08:55;;;;;;;;;;;;;;;19.90;47.04;101811.81;5007012;28;3972;-76
2023/04/30 05:11:21;;;;;;;;;;;;;;;19.92;46.81;101823.44;5013734;28;4258;-76
2023/04/30 05:13:50;;;;;;;;;;;;;;;19.91;46.85;101826.97;5010546;28;4252;-77
2023/04/30 05:16:16;;;;;;;;;;;;;;;19.92;46.97;101823.44;5010719;28;4294;-76
2023/04/30 05:18:43;;;;;;;;;;;;;;;19.92;46.93;101822.69;5009469;28;4164;-76
2023/04/30 05:21:09;;;;;;;;;;;;;;;19.91;47.02;101829.84;5007537;28;4046;-76
2023/04/30 05:23:35;;;;;;;;;;;;;;;19.91;46.97;101826.97;5010573;28;4300;-77
2023/04/30 05:26:02;;;;;;;;;;;;;;;19.91;46.89;101821.94;5008809;28;4034;-76
2023/04/30 05:28:29;;;;;;;;;;;;;;;19.92;46.88;101829.19;5014288;28;4085;-76
2023/04/30 05:30:55;;;;;;;;;;;;;;;19.92;46.76;101840.69;5010680;28;4008;-76
2023/04/30 05:33:21;;;;;;;;;;;;;;;19.92;46.91;101845.69;5011275;28;4185;-77
2023/04/30 05:35:48;;;;;;;;;;;;;;;19.95;46.95;101841.56;5010349;28;4340;-77
2023/04/30 05:38:14;;;;;;;;;;;;;;;19.95;46.99;101842.34;5007429;28;4099;-76
2023/04/30 05:40:40;;;;;;;;;;;;;;;19.95;46.91;101845.22;5013311;28;4074;-76
2023/04/30 05:43:07;;;;;;;;;;;;;;;19.96;46.82;101846.69;5013292;28;3957;-76
2023/04/30 05:45:33;;;;;;;;;;;;;;;19.96;46.97;101846.69;5011321;28;4090;-76
2023/04/30 05:48:00;;;;;;;;;;;;;;;19.96;46.87;101846.69;5014521;28;4095;-76
2023/04/30 05:50:27;;;;;;;;;;;;;;;19.97;46.86;101847.44;5008896;28;4109;-76
2023/04/30 05:52:53;;;;;;;;;;;;;;;19.97;46.85;101853.94;5016043;28;4181;-76
2023/04/30 05:55:20;;;;;;;;;;;;;;;19.96;46.89;101858.19;5012135;28;4016;-77
2023/04/30 05:57:46;;;;;;;;;;;;;;;19.96;46.97;101857.47;5009581;28;3938;-76
2023/04/30 06:00:13;;;;;;;;;;;;;;;19.97;46.83;101853.19;5011040;28;4331;-76
2023/04/30 06:02:40;;;;;;;;;;;;;;;19.97;46.84;101858.94;5016161;28;4766;-76
2023/04/30 06:05:06;;;;;;;;;;;;;;;19.97;46.88;101865.44;5009912;28;3963;-76
2023/04/30 06:07:33;;;;;;;;;;;;;;;19.97;47.00;101859.69;5006592;28;4691;-78
2023/04/30 06:09:59;;;;;;;;;;;;;;;19.99;46.91;101861.97;5009371;28;4146;-77
2023/04/30 06:12:26;;;;;;;;;;;;;;;20.00;46.74;101869.97;5006281;28;4175;-76
2023/04/30 06:14:52;;;;;;;;;;;;;;;20.00;46.85;101875.72;5005906;28;4108;-76
2023/04/30 06:17:18;;;;;;;;;;;;;;;20.01;46.79;101874.34;5010930;28;3983;-76
2023/04/30 06:19:45;;;;;;;;;;;;;;;20.01;46.71;101871.47;5007003;28;4071;-76
2023/04/30 06:22:11;;;;;;;;;;;;;;;20.02;46.72;101883.72;5010688;28;4189;-76
2023/04/30 06:24:38;;;;;;;;;;;;;;;20.01;46.85;101877.22;5012293;28;4085;-77
2023/04/30 06:27:04;;;;;;;;;;;;;;;20.02;46.96;101878.72;5010900;28;4136;-77
2023/04/30 06:29:30;;;;;;;;;;;;;;;20.01;46.86;101879.34;5010262;28;4008;-76
2023/04/30 06:31:57;;;;;;;;;;;;;;;20.00;46.96;101884.34;5017183;28;4896;-77
2023/04/30 06:34:23;;;;;;;;;;;;;;;19.99;46.86;101891.44;5009869;28;4297;-76
2023/04/30 06:36:50;;;;;;;;;;;;;;;19.99;46.89;101891.44;5008993;28;4073;-76
2023/04/30 06:39:16;;;;;;;;;;;;;;;20.00;46.88;101890.09;5005430;28;4053;-76
2023/04/30 06:41:42;;;;;;;;;;;;;;;20.00;46.88;101892.97;5010469;28;3972;-77
2023/04/30 06:44:09;;;;;;;;;;;;;;;20.00;46.77;101886.47;5013736;28;3881;-76
2023/04/30 06:46:35;;;;;;;;;;;;;;;20.01;46.80;101894.47;5022465;28;5284;-75
2023/04/30 06:49:02;;;;;;;;;;;;;;;20.01;46.90;101894.47;5010242;28;4086;-77
2023/04/30 06:51:29;;;;;;;;;;;;;;;20.03;46.85;101890.97;5007509;28;4050;-76
2023/04/30 06:53:55;;;;;;;;;;;;;;;20.03;46.76;101885.97;5008954;28;4022;-77
2023/04/30 06:56:22;;;;;;;;;;;;;;;20.03;46.90;101893.84;5012724;28;4375;-77
2023/04/30 06:58:49;;;;;;;;;;;;;;;20.09;46.76;101880.63;5010162;28;4079;-75
2023/04/30 07:01:16;;;;;;;;;;;;;;;20.04;46.93;101881.72;5009233;28;4171;-75
2023/04/30 07:03:42;;;;;;;;;;;;;;;20.05;46.83;101888.22;5007983;28;4056;-76
2023/04/30 07:06:09;;;;;;;;;;;;;;;20.04;46.49;101884.59;5009741;28;4065;-76
2023/04/30 07:08:36;;;;;;;;;;;;;;;19.99;46.24;101890.72;5009312;28;4003;-76
2023/04/30 07:11:02;;;;;;;;;;;;;;;19.99;45.54;101891.44;5009597;28;3914;-76
2023/04/30 07:13:29;;;;;;;;;;;;;;;20.00;45.64;101890.09;5005068;28;3899;-75
2023/04/30 07:15:55;;;;;;;;;;;;;;;20.00;45.46;101887.22;5010005;28;4432;-75
2023/04/30 07:18:22;;;;;;;;;;;;;;;20.01;45.42;101894.47;5012044;28;4157;-74
2023/04/30 07:20:48;;;;;;;;;;;;;;;20.03;45.02;101893.84;5011368;28;5289;-76
2023/04/30 07:23:14;;;;;;;;;;;;;;;20.05;45.28;101888.97;5007796;28;4087;-74
2023/04/30 07:25:41;;;;;;;;;;;;;;;20.06;45.72;101896.22;5011760;28;4138;-75
2023/04/30 07:28:07;;;;;;;;;;;;;;;20.07;45.85;101886.22;5010097;28;4026;-76
2023/04/30 07:30:34;;;;;;;;;;;;;;;20.07;45.75;101891.97;5009250;28;4069;-76
2023/04/30 07:33:00;;;;;;;;;;;;;;;20.08;45.59;101889.84;5010664;28;5182;-76
2023/04/30 07:35:27;;;;;;;;;;;;;;;20.08;45.76;101887.72;5010366;28;4975;-76
2023/04/30 07:37:53;;;;;;;;;;;;;;;20.08;45.55;101887.72;5013812;28;4199;-76
2023/04/30 07:40:20;;;;;;;;;;;;;;;20.08;45.52;101895.59;5009492;28;4313;-76
2023/04/30 07:43:00;;;;;;;;;;;;;;;20.09;45.14;101894.25;5007410;28;4334;-76
2023/04/30 07:45:26;;;;;;;;;;;;;;;20.09;45.54;101895.00;5011139;28;3936;-76
2023/04/30 07:47:53;;;;;;;;;;;;;;;20.09;45.47;101897.88;5007626;28;4050;-76
2023/04/30 07:50:19;;;;;;;;;;;;;;;20.09;44.99;101895.00;5007647;28;4118;-76
2023/04/30 07:52:47;;;;;;;;;;;;;;;20.06;45.01;101896.22;5010898;28;3930;-76
2023/04/30 07:55:13;;;;;;;;;;;;;;;20.04;45.12;101901.88;5008694;28;4322;-76
2023/04/30 07:57:40;;;;;;;;;;;;;;;20.02;45.60;101901.72;5008945;28;4229;-76
2023/04/30 08:00:07;;;;;;;;;;;;;;;20.04;45.64;101901.09;5008156;28;4355;-74
2023/04/30 08:02:37;;;;;;;;;;;;;;;20.08;45.53;101899.22;5011009;28;4281;-74
2023/04/30 08:05:04;;;;;;;;;;;;;;;20.08;45.53;101902.09;5007857;28;4188;-74
2023/04/30 08:07:31;;;;;;;;;;;;;;;20.12;45.59;101903.75;5008525;28;4142;-75
2023/04/30 08:09:57;;;;;;;;;;;;;;;20.12;45.39;101901.63;5007302;28;3968;-73
2023/04/30 08:12:24;;;;;;;;;;;;;;;20.13;45.41;101905.25;5009872;28;4144;-74
2023/04/30 08:14:57;;;;;;;;;;;;;;;20.11;45.68;101902.97;5013825;28;4093;-75
2023/04/30 08:17:24;;;;;;;;;;;;;;;20.13;45.54;101916.75;5010199;28;4058;-75
2023/04/30 08:19:51;;;;;;;;;;;;;;;20.14;45.53;101918.25;5009966;28;3901;-74
2023/04/30 08:22:18;;;;;;;;;;;;;;;20.13;45.73;101911.00;5011100;28;4257;-73
2023/04/30 08:24:44;;;;;;;;;;;;;;;20.11;45.74;101914.47;5007830;28;3927;-75
2023/04/30 08:27:10;;;;;;;;;;;;;;;20.11;45.79;101922.38;5006570;28;3929;-73
2023/04/30 08:29:37;;;;;;;;;;;;;;;20.12;45.70;101909.50;5006564;28;4096;-74
2023/04/30 08:32:04;;;;;;;;;;;;;;;20.11;45.71;101916.59;5007977;28;4314;-74
2023/04/30 08:34:31;;;;;;;;;;;;;;;20.11;45.80;101919.50;5004123;28;4450;-71
2023/04/30 08:36:57;;;;;;;;;;;;;;;19.56;44.53;101908.78;5008661;28;4464;-74
2023/04/30 08:39:23;;;;;;;;;;;;;;;19.75;45.13;101922.25;5009304;28;3996;-74
2023/04/30 08:41:52;;;;;;;;;;;;;;;19.89;45.63;101916.69;5009343;28;4262;-74
2023/04/30 08:44:18;;;;;;;;;;;;;;;19.96;45.38;101918.56;5009017;28;4838;-74
2023/04/30 08:46:45;;;;;;;;;;;;;;;20.00;45.28;101907.34;5010812;28;3929;-74
2023/04/30 08:49:11;;;;;;;;;;;;;;;20.03;45.18;101902.47;5001946;28;4345;-74
2023/04/30 08:51:38;;;;;;;;;;;;;;;20.04;45.09;101901.88;5014048;28;4123;-74
2023/04/30 08:54:04;;;;;;;;;;;;;;;20.05;45.09;101923.47;5008420;28;4005;-73
2023/04/30 08:56:32;;;;;;;;;;;;;;;20.05;45.14;101914.84;5003506;28;4174;-74
2023/04/30 08:58:58;;;;;;;;;;;;;;;20.05;45.08;101914.84;5013239;28;3994;-74
2023/04/30 09:01:25;;;;;;;;;;;;;;;20.06;44.99;101924.22;5012296;28;4023;-73
2023/04/30 09:03:52;;;;;;;;;;;;;;;20.06;45.13;101924.22;5006825;28;4078;-73
2023/04/30 09:06:18;;;;;;;;;;;;;;;20.06;45.00;101927.84;5012799;28;4060;-73
2023/04/30 09:08:46;;;;;;;;;;;;;;;20.07;45.12;101925.75;5011234;28;4375;-74
2023/04/30 09:11:28;;;;;;;;;;;;;;;20.07;45.24;101934.38;5006632;28;4041;-73
2023/04/30 09:13:56;;;;;;;;;;;;;;;20.06;45.29;101924.22;5013678;28;4045;-74
2023/04/30 09:16:23;;;;;;;;;;;;;;;20.07;45.19;101920.00;5013024;28;4181;-73
2023/04/30 09:18:50;;;;;;;;;;;;;;;20.06;45.38;101918.47;5009736;28;3914;-74
2023/04/30 09:21:16;;;;;;;;;;;;;;;20.06;45.31;101924.97;5007097;28;4171;-73
2023/04/30 09:23:55;;;;;;;;;;;;;;;20.05;45.51;101931.34;5013656;28;4057;-73
2023/04/30 09:26:25;;;;;;;;;;;;;;;20.07;45.34;101920.00;5001878;28;4064;-74
2023/04/30 09:28:56;;;;;;;;;;;;;;;20.06;45.42;101933.59;5012936;28;3936;-73
2023/04/30 09:31:23;;;;;;;;;;;;;;;20.07;45.53;101925.75;5010663;28;3914;-74
2023/04/30 09:33:50;;;;;;;;;;;;;;;20.06;45.56;101933.59;5016647;28;4038;-74
2023/04/30 09:36:16;;;;;;;;;;;;;;;20.05;45.60;101932.09;5007111;28;4034;-73
2023/04/30 09:38:43;;;;;;;;;;;;;;;20.06;45.58;101933.59;5009905;28;4490;-74
2023/04/30 09:41:22;;;;;;;;;;;;;;;20.06;45.72;101930.72;5007003;28;4030;-72
2023/04/30 09:43:48;;;;;;;;;;;;;;;20.06;45.97;101929.97;5011503;28;4088;-74
2023/04/30 09:46:15;;;;;;;;;;;;;;;20.06;45.81;101936.47;5009222;28;4022;-73
2023/04/30 09:48:42;;;;;;;;;;;;;;;20.03;45.85;101928.34;5008076;28;4068;-73
2023/04/30 09:51:08;;;;;;;;;;;;;;;20.06;45.84;101939.34;5013317;28;4009;-72
2023/04/30 09:53:37;;;;;;;;;;;;;;;20.05;45.80;101932.09;5011804;28;3918;-72
2023/04/30 09:56:07;;;;;;;;;;;;;;;20.05;46.05;101929.22;5008999;28;5145;-72
2023/04/30 09:58:35;;;;;;;;;;;;;;;19.96;46.07;101921.44;5010301;28;4089;-72
2023/04/30 10:01:01;;;;;;;;;;;;;;;19.92;45.54;101926.94;5009092;28;3931;-74
2023/04/30 10:03:28;;;;;;;;;;;;;;;19.93;45.55;101922.69;5018333;28;4125;-75
2023/04/30 10:05:54;;;;;;;;;;;;;;;19.61;44.25;101916.28;5015486;28;4105;-76
2023/04/30 10:08:24;;;;;;;;;;;;;;;19.50;42.96;101916.97;5011951;28;4009;-75
2023/04/30 10:10:52;;;;;;;;;;;;;;;19.69;43.73;101909.59;5009664;28;3909;-74
2023/04/30 10:13:18;;;;;;;;;;;;;;;19.83;45.29;101911.28;5009105;28;4060;-74
2023/04/30 10:15:47;;;;;;;;;;;;;;;19.90;45.15;101918.19;5008615;28;4103;-74
2023/04/30 10:18:15;;;;;;;;;;;;;;;19.93;44.76;101910.44;5010699;28;4108;-74
2023/04/30 10:20:42;;;;;;;;;;;;;;;19.97;44.56;101917.19;5008871;28;4030;-74
2023/04/30 10:23:08;;;;;;;;;;;;;;;20.01;44.53;101911.72;5010069;28;3964;-74
2023/04/30 10:25:35;;;;;;;;;;;;;;;20.04;44.45;101904.75;5009828;28;4362;-65
2023/04/30 10:28:02;;;;;;;;;;;;;;;20.06;44.58;101907.72;5010354;28;4088;-68
2023/04/30 10:30:30;;;;;;;;;;;;;;;20.07;44.57;101914.25;5012036;28;4077;-69
2023/04/30 10:33:04;;;;;;;;;;;;;;;20.06;44.47;101901.97;5008873;28;4107;-69
2023/04/30 10:35:37;;;;;;;;;;;;;;;20.09;44.51;101897.88;5011024;28;4212;-69
2023/04/30 10:38:06;;;;;;;;;;;;;;;20.12;44.48;101893.00;5010573;28;4155;-69
2023/04/30 10:40:36;;;;;;;;;;;;;;;20.12;44.70;101898.00;5013630;28;4628;-69
2023/04/30 10:43:02;;;;;;;;;;;;;;;20.13;44.46;101879.34;5007367;28;4212;-69
2023/04/30 10:45:37;;;;;;;;;;;;;;;20.13;44.62;101885.84;5008263;28;3964;-69
2023/04/30 10:48:05;;;;;;;;;;;;;;;20.16;44.73;101892.47;5006882;28;4376;-71
2023/04/30 10:50:31;;;;;;;;;;;;;;;20.17;44.64;101888.25;5008811;28;4472;-77
2023/04/30 10:53:02;;;;;;;;;;;;;;;19.79;42.87;101884.38;5010992;28;4482;-77
2023/04/30 10:55:29;;;;;;;;;;;;;;;19.64;41.20;101889.19;5004550;28;4162;-69
2023/04/30 10:57:55;;;;;;;;;;;;;;;19.59;40.68;101887.41;5005826;28;4547;-69
2023/04/30 11:00:25;;;;;;;;;;;;;;;19.76;42.66;101885.63;5007004;28;4199;-69
2023/04/30 11:02:55;;;;;;;;;;;;;;;19.89;43.22;101873.56;5009144;28;4598;-69
2023/04/30 11:05:32;;;;;;;;;;;;;;;19.95;42.88;101882.59;5010713;28;5095;-69
2023/04/30 11:07:58;;;;;;;;;;;;;;;20.01;42.60;101876.47;5014509;28;4121;-69
2023/04/30 11:10:25;;;;;;;;;;;;;;;20.04;42.19;101887.50;5007394;28;4019;-69
2023/04/30 11:12:52;;;;;;;;;;;;;;;20.06;42.63;101881.09;5010193;28;4266;-69
2023/04/30 11:15:32;;;;;;;;;;;;;;;20.08;42.74;101876.22;5015308;28;4255;-69
2023/04/30 11:17:58;;;;;;;;;;;;;;;20.09;42.92;101877.75;5010692;28;4049;-69
2023/04/30 11:20:25;;;;;;;;;;;;;;;20.08;43.05;101881.97;5008318;28;4212;-69
2023/04/30 11:23:10;;;;;;;;;;;;;;;20.11;43.13;101879.22;5010240;28;4134;-69
2023/04/30 11:25:46;;;;;;;;;;;;;;;20.11;43.27;101879.22;5008981;28;4590;-69
2023/04/30 11:28:15;;;;;;;;;;;;;;;20.12;43.41;101880.75;5009595;28;4128;-69
2023/04/30 11:30:49;;;;;;;;;;;;;;;20.11;43.64;101861.97;5007639;28;4184;-69
2023/04/30 11:33:15;;;;;;;;;;;;;;;20.12;43.80;101860.63;5007308;28;4009;-69
2023/04/30 11:35:42;;;;;;;;;;;;;;;20.14;43.82;101866.50;5015478;28;4171;-69
2023/04/30 11:38:08;;;;;;;;;;;;;;;20.14;44.08;101866.50;5012664;28;4033;-69
2023/04/30 11:40:35;;;;;;;;;;;;;;;20.15;44.19;101868.00;5012401;28;4109;-69
2023/04/30 11:43:01;;;;;;;;;;;;;;;20.14;44.10;101861.50;5011799;28;4187;-69
2023/04/30 11:45:29;;;;;;;;;;;;;;;20.16;44.32;101863.72;5009115;28;4152;-69
2023/04/30 11:47:55;;;;;;;;;;;;;;;20.15;44.48;101856.47;5009252;28;4158;-69
2023/04/30 11:50:28;;;;;;;;;;;;;;;20.16;44.52;101857.97;5007699;28;4187;-69
2023/04/30 11:52:56;;;;;;;;;;;;;;;20.17;44.60;101859.50;5011161;28;4140;-69
2023/04/30 11:55:23;;;;;;;;;;;;;;;20.15;44.61;101851.47;5009051;28;4032;-69
2023/04/30 11:57:50;;;;;;;;;;;;;;;20.16;44.80;101849.34;5008628;28;4259;-69
2023/04/30 12:00:27;;;;;;;;;;;;;;;20.17;44.93;101853.75;5010022;28;4341;-69
2023/04/30 12:02:53;;;;;;;;;;;;;;;20.19;44.94;101846.00;5008248;28;4067;-69
2023/04/30 12:05:21;;;;;;;;;;;;;;;20.20;44.98;101840.97;5009029;28;4192;-69
2023/04/30 12:07:50;;;;;;;;;;;;;;;20.19;45.13;101851.00;5007141;28;4216;-69
2023/04/30 12:10:19;;;;;;;;;;;;;;;20.20;45.15;101849.59;5006493;28;4117;-69
2023/04/30 12:12:46;;;;;;;;;;;;;;;20.23;45.17;101845.50;5005269;28;4203;-69
2023/04/30 12:15:22;;;;;;;;;;;;;;;20.21;45.24;101854.00;5009156;28;4286;-69
2023/04/30 12:17:48;;;;;;;;;;;;;;;20.21;45.29;101848.25;5003760;28;6431;-69
2023/04/30 12:20:15;;;;;;;;;;;;;;;20.23;45.35;101845.50;5008566;28;4065;-69
2023/04/30 12:22:41;;;;;;;;;;;;;;;20.24;45.32;101841.25;5010965;28;4073;-69
2023/04/30 12:25:10;;;;;;;;;;;;;;;20.24;45.38;101844.13;5010550;28;4125;-69
2023/04/30 12:27:36;;;;;;;;;;;;;;;20.24;45.44;101839.09;5008420;28;3977;-69
2023/04/30 12:30:06;;;;;;;;;;;;;;;20.24;45.38;101841.25;5009948;28;4162;-70
2023/04/30 12:32:42;;;;;;;;;;;;;;;20.26;45.37;101841.38;5008680;28;4317;-70
2023/04/30 12:35:13;;;;;;;;;;;;;;;20.27;45.53;101839.97;5012052;28;4292;-69
2023/04/30 12:37:43;;;;;;;;;;;;;;;20.28;45.42;101841.50;5002599;28;4393;-71
2023/04/30 12:40:10;;;;;;;;;;;;;;;20.26;45.70;101832.75;5007509;28;4015;-71
2023/04/30 12:42:36;;;;;;;;;;;;;;;20.26;45.50;101839.25;5014332;28;4651;-69
2023/04/30 12:45:03;;;;;;;;;;;;;;;20.28;45.63;101841.50;5005634;28;4048;-69
2023/04/30 12:47:29;;;;;;;;;;;;;;;20.29;45.54;101832.25;5009353;28;3908;-69
2023/04/30 12:49:56;;;;;;;;;;;;;;;20.30;45.77;101833.75;5009008;28;4989;-69